Time;durP1;ratioP1;P1;durP2;ratioP2;P2;SDS_P1;SDS_P2;PMS_P1;PMS_P2;Temp;Humidity;BMP_temperature;BMP_pressure;BME280_temperature;BME280_humidity;BME280_pressure;Samples;Min_cycle;Max_cycle;Signal;HPM_P1;HPM_P2
2022/10/01 00:00:53;;;;;;;8.70;7.53;;;;;;;17.79;72.69;100392.88;5068131;28;20024;-27
2022/10/01 00:03:20;;;;;;;10.30;6.85;;;;;;;17.01;74.79;100403.22;5068048;28;20040;-31
2022/10/01 00:05:46;;;;;;;9.43;6.17;;;;;;;16.80;76.27;100397.59;5067799;28;20116;-31
2022/10/01 00:08:15;;;;;;;12.00;6.63;;;;;;;17.32;75.40;100398.94;5067614;28;20754;-28
2022/10/01 00:10:42;;;;;;;11.65;6.60;;;;;;;17.38;74.57;100402.50;5067750;28;20024;-26
2022/10/01 00:13:08;;;;;;;13.88;6.63;;;;;;;17.57;73.77;100395.69;5068093;28;20473;-26
2022/10/01 00:15:34;;;;;;;11.82;6.22;;;;;;;17.48;73.90;100394.53;5067625;28;20492;-28
2022/10/01 00:18:00;;;;;;;12.90;7.22;;;;;;;17.79;72.34;100397.47;5067492;28;20033;-28
2022/10/01 00:20:26;;;;;;;13.85;7.40;;;;;;;17.59;72.83;100392.72;5067546;28;20027;-28
2022/10/01 00:22:51;;;;;;;11.63;6.78;;;;;;;17.34;75.02;100379.84;5067425;28;20028;-28
2022/10/01 00:25:17;;;;;;;12.30;7.07;;;;;;;17.08;74.94;100393.09;5067671;28;20028;-28
2022/10/01 00:27:45;;;;;;;10.65;6.65;;;;;;;16.92;75.22;100396.66;5067354;28;20389;-28
2022/10/01 00:30:11;;;;;;;12.18;6.57;;;;;;;16.53;76.17;100386.78;5067219;28;20024;-27
2022/10/01 00:32:39;;;;;;;9.90;6.05;;;;;;;16.29;77.53;100390.78;5067926;28;20030;-27
2022/10/01 00:35:08;;;;;;;11.00;6.47;;;;;;;16.77;75.39;100392.69;5067262;28;20089;-28
2022/10/01 00:37:36;;;;;;;11.20;6.65;;;;;;;16.84;74.44;100377.19;5067149;28;20032;-27
2022/10/01 00:40:02;;;;;;;;;;;;;;;16.97;73.55;100402.13;5067843;28;20024;-27
2022/10/01 00:42:27;;;;;;;11.70;5.93;;;;;;;17.04;73.63;100394.63;5067426;28;19916;-26
2022/10/01 00:44:53;;;;;;;9.90;6.55;;;;;;;16.40;76.54;100387.94;5067616;28;20025;-28
2022/10/01 00:47:32;;;;;;;10.13;5.55;;;;;;;16.06;78.50;100371.91;5067528;28;20036;-31
2022/10/01 00:50:21;;;;;;;9.68;6.05;;;;;;;16.14;77.98;100396.72;5066442;28;20489;-27
2022/10/01 00:53:03;;;;;;;11.23;6.50;;;;;;;16.05;78.21;100378.31;5067597;28;20028;-27
2022/10/01 00:55:36;;;;;;;11.18;6.35;;;;;;;15.95;78.38;100375.47;5067144;28;20029;-30
2022/10/01 00:58:03;;;;;;;9.70;6.18;;;;;;;16.10;78.34;100387.53;5067019;28;20508;-27
2022/10/01 01:00:30;;;;;;;12.80;7.03;;;;;;;16.02;78.87;100375.34;5066969;28;20760;-30
2022/10/01 01:02:56;;;;;;;12.60;6.88;;;;;;;15.93;78.85;100366.84;5067027;28;20287;-26
2022/10/01 01:05:21;;;;;;;9.35;6.18;;;;;;;15.92;79.55;100381.38;5066741;28;20086;-28
2022/10/01 01:07:51;;;;;;;11.52;6.93;;;;;;;15.77;80.39;100386.50;5066585;28;20045;-31
2022/10/01 01:10:25;;;;;;;11.23;5.82;;;;;;;16.14;77.81;100362.59;5067043;28;20038;-27
2022/10/01 01:12:50;;;;;;;9.60;5.82;;;;;;;16.19;77.42;100376.09;5066636;28;20416;-27
2022/10/01 01:15:36;;;;;;;11.70;6.63;;;;;;;16.24;77.50;100369.97;5067182;28;20031;-27
2022/10/01 01:18:09;;;;;;;9.57;5.72;;;;;;;16.37;75.73;100371.50;5066659;28;20028;-28
2022/10/01 01:20:43;;;;;;;12.90;6.07;;;;;;;16.42;75.77;100382.31;5066959;28;20025;-27
2022/10/01 01:23:15;;;;;;;10.02;5.88;;;;;;;16.43;76.47;100390.16;5048782;28;20129;-29
2022/10/01 01:25:51;;;;;;;10.07;5.72;;;;;;;15.87;77.64;100392.03;5066906;28;20036;-29
2022/10/01 01:28:38;;;;;;;7.82;5.43;;;;;;;15.60;77.92;100363.09;5066862;28;20090;-31
2022/10/01 01:31:13;;;;;;;12.32;5.75;;;;;;;15.54;78.55;100372.13;5066731;28;20173;-30
2022/10/01 01:33:42;;;;;;;10.73;6.15;;;;;;;15.92;78.47;100383.25;5066636;28;20037;-27
2022/10/01 01:36:16;;;;;;;9.90;5.93;;;;;;;15.57;78.40;100366.28;5066148;28;20095;-27
2022/10/01 01:38:50;;;;;;;9.55;5.80;;;;;;;15.35;79.37;100397.63;5049151;28;20092;-30
2022/10/01 01:41:19;;;;;;;9.23;6.07;;;;;;;15.57;78.35;100377.03;5066642;28;20412;-29
2022/10/01 01:43:48;;;;;;;8.27;5.75;;;;;;;16.01;75.94;100393.31;5066711;28;20036;-31
2022/10/01 01:46:17;;;;;;;9.10;6.65;;;;;;;15.92;76.24;100391.31;5048063;28;20097;-28
2022/10/01 01:48:48;;;;;;;9.55;5.85;;;;;;;15.67;77.91;100390.66;5066777;28;20117;-27
2022/10/01 01:51:22;;;;;;;8.68;5.95;;;;;;;15.22;79.00;100377.22;5066451;28;20101;-27
2022/10/01 01:53:48;;;;;;;9.98;6.03;;;;;;;15.34;79.06;100390.63;5066342;28;20115;-28
2022/10/01 01:56:16;;;;;;;10.43;6.00;;;;;;;15.21;79.34;100381.81;5066354;28;20044;-27
2022/10/01 01:58:43;;;;;;;11.80;6.63;;;;;;;15.59;78.11;100387.53;5066282;28;20039;-27
2022/10/01 02:01:36;;;;;;;9.30;6.60;;;;;;;16.14;77.00;100410.19;5068009;28;20037;-27
2022/10/01 02:04:18;;;;;;;12.93;7.43;;;;;;;16.04;78.07;100395.53;5069952;28;20127;-28
2022/10/01 02:07:00;;;;;;;9.63;6.53;;;;;;;15.98;77.66;100412.66;5070376;28;20052;-28
2022/10/01 02:09:49;;;;;;;10.32;6.82;;;;;;;15.51;79.73;100404.91;5069872;28;20028;-29
2022/10/01 02:12:20;;;;;;;13.82;7.75;;;;;;;15.44;80.16;100428.41;5070030;28;20040;-29
2022/10/01 02:15:05;;;;;;;9.95;6.50;;;;;;;15.79;77.74;100413.97;5051738;28;20127;-28
2022/10/01 02:17:32;;;;;;;10.13;6.70;;;;;;;15.92;78.40;100413.66;5051814;28;20105;-28
2022/10/01 02:20:07;;;;;;;15.43;7.97;;;;;;;15.61;78.97;100412.28;5069945;28;20055;-27
2022/10/01 02:22:58;;;;;;;10.70;6.18;;;;;;;15.23;80.67;100406.56;5069969;28;20030;-28
2022/10/01 02:25:29;;;;;;;10.68;6.18;;;;;;;14.96;81.24;100400.16;5069224;28;20025;-28
2022/10/01 02:28:00;;;;;;;9.95;6.47;;;;;;;15.14;82.20;100407.19;5069401;28;20477;-27
2022/10/01 02:30:28;;;;;;;12.05;6.60;;;;;;;15.14;81.03;100402.66;5069744;28;20422;-30
2022/10/01 02:32:58;;;;;;;13.18;7.50;;;;;;;14.70;81.31;100402.31;5069710;28;20028;-27
2022/10/01 02:35:25;;;;;;;11.25;6.85;;;;;;;14.76;82.50;100379.91;5069423;28;20454;-27
2022/10/01 02:37:55;;;;;;;11.93;7.10;;;;;;;14.92;82.17;100409.75;5069221;28;20036;-28
2022/10/01 02:40:27;;;;;;;10.63;7.35;;;;;;;14.84;81.26;100398.31;5050946;28;20067;-28
2022/10/01 02:43:01;;;;;;;12.98;7.25;;;;;;;15.15;80.81;100430.31;5069714;28;20028;-29
2022/10/01 02:45:31;;;;;;;15.73;7.93;;;;;;;15.49;80.22;100433.91;5070075;28;20128;-27
2022/10/01 02:48:06;;;;;;;12.52;7.60;;;;;;;15.58;80.98;100427.03;5069167;28;20054;-29
2022/10/01 02:50:56;;;;;;;12.43;7.68;;;;;;;15.62;80.32;100430.88;5069831;28;20119;-28
2022/10/01 02:53:26;;;;;;;14.18;8.48;;;;;;;15.83;80.33;100447.38;5068553;28;20044;-29
2022/10/01 02:55:52;;;;;;;14.30;8.65;;;;;;;15.41;82.82;100434.28;5069071;28;20028;-28
2022/10/01 02:58:18;;;;;;;14.82;8.63;;;;;;;15.13;82.51;100427.06;5069143;28;20163;-28
2022/10/01 03:00:44;;;;;;;12.07;8.90;;;;;;;15.52;82.29;100437.97;5069667;28;20725;-27
2022/10/01 03:03:09;;;;;;;17.58;8.98;;;;;;;15.65;81.70;100451.06;5069331;28;20028;-28
2022/10/01 03:05:35;;;;;;;14.88;8.38;;;;;;;15.55;80.85;100429.41;5068645;28;20496;-29
2022/10/01 03:08:01;;;;;;;13.13;7.68;;;;;;;15.75;79.94;100445.09;5069169;28;20083;-27
2022/10/01 03:10:26;;;;;;;12.05;7.85;;;;;;;15.64;80.04;100418.00;5069282;28;20516;-27
2022/10/01 03:12:52;;;;;;;13.63;8.30;;;;;;;15.65;79.51;100441.16;5068613;28;20045;-26
2022/10/01 03:15:19;;;;;;;11.88;7.68;;;;;;;15.70;80.84;100436.94;5050704;28;20178;-27
2022/10/01 03:17:45;;;;;;;12.90;7.97;;;;;;;15.79;80.03;100427.41;5068933;28;20407;-29
2022/10/01 03:20:11;;;;;;;13.25;7.75;;;;;;;15.93;79.27;100434.09;5068252;28;20032;-29
2022/10/01 03:22:36;;;;;;;15.18;8.63;;;;;;;15.80;79.55;100440.63;5068973;28;20029;-30
2022/10/01 03:25:02;;;;;;;12.10;8.15;;;;;;;15.94;78.35;100435.75;5068796;28;20033;-26
2022/10/01 03:27:28;;;;;;;12.38;8.02;;;;;;;15.75;80.09;100426.28;5068571;28;20033;-27
2022/10/01 03:29:53;;;;;;;13.40;8.77;;;;;;;15.78;78.28;100433.88;5068390;28;20027;-28
2022/10/01 03:32:19;;;;;;;11.63;8.73;;;;;;;15.95;79.34;100453.50;5068269;28;20021;-28
2022/10/01 03:34:45;;;;;;;13.70;8.23;;;;;;;15.70;78.61;100445.81;5068326;28;20040;-28
2022/10/01 03:37:10;;;;;;;15.68;8.10;;;;;;;15.92;77.25;100445.13;5068404;28;20028;-27
2022/10/01 03:39:35;;;;;;;14.35;8.52;;;;;;;15.81;77.58;100446.81;5068507;28;20016;-27
2022/10/01 03:42:01;;;;;;;13.63;7.80;;;;;;;15.60;78.29;100438.38;5067854;28;20036;-27
2022/10/01 03:44:27;;;;;;;13.27;7.32;;;;;;;15.45;80.68;100460.44;5068502;28;20116;-27
2022/10/01 03:46:53;;;;;;;12.98;7.85;;;;;;;15.82;78.30;100430.44;5068434;28;20032;-28
2022/10/01 03:49:19;;;;;;;11.80;8.18;;;;;;;15.89;77.77;100459.84;5068219;28;20062;-28
2022/10/01 03:51:44;;;;;;;12.15;7.95;;;;;;;15.90;77.18;100469.56;5068338;28;20033;-31
2022/10/01 03:54:10;;;;;;;14.13;7.97;;;;;;;15.87;77.50;100448.50;5067884;28;20104;-27
2022/10/01 03:56:36;;;;;;;13.95;7.70;;;;;;;16.15;76.34;100460.25;5050017;28;20024;-29
2022/10/01 03:59:02;;;;;;;14.73;7.93;;;;;;;16.02;77.30;100437.22;5067852;28;20389;-30
2022/10/01 04:01:27;;;;;;;16.25;7.65;;;;;;;15.81;78.04;100447.66;5067812;28;20033;-30
2022/10/01 04:03:53;;;;;;;16.27;8.35;;;;;;;15.89;77.97;100450.97;5067304;28;20454;-29
2022/10/01 04:06:18;;;;;;;13.25;7.63;;;;;;;15.86;78.98;100457.66;5049750;28;20052;-29
2022/10/01 04:08:44;;;;;;;15.80;7.53;;;;;;;15.84;78.62;100439.06;5067881;28;20021;-28
2022/10/01 04:11:10;;;;;;;12.00;7.55;;;;;;;15.67;79.18;100449.81;5067845;28;20032;-29
2022/10/01 04:13:36;;;;;;;15.15;7.28;;;;;;;15.91;77.38;100452.34;5067852;28;20032;-29
2022/10/01 04:16:03;;;;;;;10.20;6.72;;;;;;;15.99;76.31;100478.84;5067435;28;20032;-29
2022/10/01 04:18:29;;;;;;;10.77;6.50;;;;;;;16.07;76.85;100485.69;5067541;28;20523;-30
2022/10/01 04:20:55;;;;;;;9.70;6.35;;;;;;;16.07;76.63;100480.31;5049665;28;20036;-27
2022/10/01 04:23:21;;;;;;;10.85;6.57;;;;;;;15.95;77.07;100477.69;5067511;28;20063;-29
2022/10/01 04:25:47;;;;;;;16.60;7.53;;;;;;;15.70;78.34;100469.19;5066512;28;20136;-27
2022/10/01 04:28:13;;;;;;;11.55;7.13;;;;;;;15.26;79.71;100453.63;5067719;28;20131;-28
2022/10/01 04:30:41;;;;;;;10.98;6.90;;;;;;;15.48;80.14;100472.56;5067586;28;20082;-29
2022/10/01 04:33:08;;;;;;;13.30;7.15;;;;;;;15.65;79.05;100457.28;5049192;28;20486;-30
2022/10/01 04:35:34;;;;;;;13.18;7.22;;;;;;;15.74;79.15;100481.13;5067462;28;20024;-27
2022/10/01 04:38:02;;;;;;;10.65;6.82;;;;;;;15.63;78.64;100497.03;5067167;28;20038;-27
2022/10/01 04:40:28;;;;;;;;;;;;;;;15.50;81.01;100491.94;5067961;28;20024;-27
2022/10/01 04:42:54;;;;;;;11.95;7.43;;;;;;;15.39;80.71;100479.41;5067191;28;19927;-28
2022/10/01 04:45:19;;;;;;;11.73;6.47;;;;;;;15.53;77.79;100464.59;5067151;28;20028;-28
2022/10/01 04:47:49;;;;;;;8.68;6.30;;;;;;;15.61;77.38;100484.88;5048784;28;20032;-28
2022/10/01 04:50:15;;;;;;;9.80;6.32;;;;;;;15.84;77.35;100492.06;5067424;28;20029;-27
2022/10/01 04:52:41;;;;;;;11.55;6.43;;;;;;;15.74;78.39;100502.63;5067219;28;20029;-28
2022/10/01 04:55:07;;;;;;;14.15;7.07;;;;;;;15.20;79.89;100471.53;5067186;28;20036;-27
2022/10/01 04:57:34;;;;;;;13.52;7.65;;;;;;;15.18;81.84;100487.06;5067088;28;20024;-27
2022/10/01 05:00:00;;;;;;;15.65;7.78;;;;;;;15.83;78.67;100498.47;5066868;28;20059;-28
2022/10/01 05:02:27;;;;;;;11.60;7.40;;;;;;;15.65;78.89;100489.56;5067108;28;20020;-27
2022/10/01 05:04:53;;;;;;;14.73;8.63;;;;;;;15.93;78.11;100501.34;5066923;28;20504;-29
2022/10/01 05:07:18;;;;;;;12.85;7.63;;;;;;;16.06;78.25;100494.84;5066676;28;20102;-27
2022/10/01 05:09:44;;;;;;;10.90;6.60;;;;;;;15.63;79.75;100502.41;5066777;28;20032;-26
2022/10/01 05:12:09;;;;;;;11.23;6.25;;;;;;;15.89;77.71;100508.25;5067054;28;20033;-27
2022/10/01 05:14:35;;;;;;;13.15;6.80;;;;;;;15.86;77.85;100506.06;5066783;28;20029;-30
2022/10/01 05:17:00;;;;;;;13.45;6.75;;;;;;;15.98;77.20;100524.84;5048835;28;20032;-29
2022/10/01 05:19:28;;;;;;;12.45;7.65;;;;;;;15.85;77.42;100505.25;5066830;28;20899;-30
2022/10/01 05:21:54;;;;;;;15.60;8.35;;;;;;;15.64;78.38;100498.66;5048966;28;20029;-27
2022/10/01 05:24:20;;;;;;;13.52;8.43;;;;;;;15.70;78.64;100507.63;5048811;28;20523;-27
2022/10/01 05:26:45;;;;;;;14.98;8.05;;;;;;;15.92;78.32;100504.28;5066774;28;20060;-28
2022/10/01 05:29:13;;;;;;;20.23;9.77;;;;;;;15.81;79.36;100495.22;5066666;28;20039;-31
2022/10/01 05:31:42;;;;;;;14.02;8.20;;;;;;;15.72;80.39;100502.03;5066845;28;20032;-28
2022/10/01 05:34:08;;;;;;;14.35;8.50;;;;;;;15.72;81.05;100496.66;5066636;28;20024;-27
2022/10/01 05:36:34;;;;;;;11.65;7.45;;;;;;;15.73;81.78;100490.22;5051116;28;20608;-28
2022/10/01 05:38:59;;;;;;;11.20;7.20;;;;;;;15.83;80.68;100485.03;5070633;28;20029;-27
2022/10/01 05:41:24;;;;;;;13.88;8.02;;;;;;;15.76;81.47;100489.75;5070686;28;20036;-30
2022/10/01 05:43:50;;;;;;;14.38;8.48;;;;;;;15.65;81.14;100484.19;5070081;28;20056;-28
2022/10/01 05:46:15;;;;;;;14.32;8.15;;;;;;;15.72;81.71;100485.91;5070683;28;20055;-28
2022/10/01 05:48:41;;;;;;;15.95;8.13;;;;;;;15.80;80.74;100504.34;5070910;28;20032;-27
2022/10/01 05:51:07;;;;;;;15.35;9.00;;;;;;;16.06;80.25;100514.47;5070683;28;20396;-30
2022/10/01 05:53:39;;;;;;;15.77;8.55;;;;;;;16.20;79.88;100511.44;5070470;28;20024;-30
2022/10/01 05:56:05;;;;;;;16.13;9.63;;;;;;;16.44;78.81;100518.28;5070189;28;20036;-27
2022/10/01 05:58:31;;;;;;;16.73;9.18;;;;;;;16.33;79.42;100521.91;5070250;28;20056;-28
2022/10/01 06:00:57;;;;;;;14.98;10.02;;;;;;;16.55;79.62;100508.50;5070438;28;20068;-27
2022/10/01 06:03:24;;;;;;;13.95;9.50;;;;;;;16.74;80.27;100525.19;5070208;28;20734;-27
2022/10/01 06:05:50;;;;;;;14.05;9.65;;;;;;;17.08;78.25;100511.66;5069911;28;20036;-28
2022/10/01 06:08:16;;;;;;;17.35;10.85;;;;;;;17.38;77.51;100516.56;5070447;28;20060;-29
2022/10/01 06:10:41;;;;;;;15.70;10.68;;;;;;;17.54;76.11;100498.66;5070098;28;20556;-28
2022/10/01 06:13:07;;;;;;;13.90;9.90;;;;;;;17.85;74.08;100521.38;5069912;28;20024;-28
2022/10/01 06:15:38;;;;;;;16.27;10.27;;;;;;;18.28;72.10;100524.94;5070165;28;20025;-29
2022/10/01 06:18:08;;;;;;;12.75;10.10;;;;;;;18.36;72.97;100515.56;5069897;28;20024;-29
2022/10/01 06:20:34;;;;;;;14.90;10.43;;;;;;;18.61;72.35;100496.03;5070008;28;20028;-28
2022/10/01 06:23:00;;;;;;;13.55;9.98;;;;;;;18.98;70.03;100515.94;5069920;28;20040;-27
2022/10/01 06:25:29;;;;;;;15.38;10.13;;;;;;;18.97;70.31;100498.09;5069607;28;20033;-27
2022/10/01 06:27:57;;;;;;;12.98;9.43;;;;;;;19.36;69.01;100516.63;5069752;28;20028;-27
2022/10/01 06:30:28;;;;;;;13.73;9.27;;;;;;;19.54;68.52;100497.19;5069985;28;20078;-28
2022/10/01 06:33:08;;;;;;;12.25;8.52;;;;;;;19.55;67.51;100501.50;5069585;28;20078;-30
2022/10/01 06:35:38;;;;;;;12.50;8.48;;;;;;;19.31;68.51;100498.50;5069671;28;20048;-27
2022/10/01 06:38:05;;;;;;;14.82;9.10;;;;;;;19.65;66.93;100517.75;5069317;28;20021;-28
2022/10/01 06:40:30;;;;;;;14.02;8.68;;;;;;;19.42;68.34;100516.38;5069711;28;20060;-28
2022/10/01 06:42:57;;;;;;;13.45;9.32;;;;;;;19.66;67.63;100507.75;5069811;28;20051;-28
2022/10/01 06:45:27;;;;;;;17.70;9.45;;;;;;;19.78;66.30;100491.31;5069473;28;20047;-28
2022/10/01 06:48:02;;;;;;;16.88;9.50;;;;;;;20.06;65.28;100498.06;5068432;28;20040;-30
2022/10/01 06:50:29;;;;;;;13.18;9.05;;;;;;;20.37;64.34;100503.44;5069435;28;20054;-28
2022/10/01 06:52:55;;;;;;;12.57;8.30;;;;;;;20.70;63.21;100531.03;5069781;28;20073;-27
2022/10/01 06:55:27;;;;;;;11.18;8.20;;;;;;;20.90;62.88;100530.97;5069403;28;20504;-29
2022/10/01 06:57:58;;;;;;;15.45;8.25;;;;;;;21.15;62.55;100532.78;5068980;28;20036;-29
2022/10/01 07:00:24;;;;;;;12.48;7.95;;;;;;;21.51;60.86;100537.25;5069337;28;20037;-28
2022/10/01 07:02:50;;;;;;;11.82;8.40;;;;;;;21.56;58.94;100529.91;5069057;28;20036;-28
2022/10/01 07:05:16;;;;;;;10.60;7.22;;;;;;;21.53;59.91;100525.00;5069400;28;20036;-29
2022/10/01 07:07:42;;;;;;;12.55;6.40;;;;;;;21.44;59.65;100526.72;5068691;28;20484;-27
2022/10/01 07:10:08;;;;;;;10.98;6.55;;;;;;;21.25;59.93;100500.19;5069085;28;20024;-27
2022/10/01 07:12:35;;;;;;;8.43;5.60;;;;;;;21.15;58.17;100502.97;5050827;28;20407;-28
2022/10/01 07:15:01;;;;;;;8.18;6.22;;;;;;;21.16;59.44;100487.50;5069147;28;20028;-27
2022/10/01 07:17:27;;;;;;;10.63;5.93;;;;;;;21.18;60.89;100482.59;5068610;28;20037;-28
2022/10/01 07:19:52;;;;;;;13.88;6.47;;;;;;;21.07;60.72;100511.69;5068825;28;20044;-28
2022/10/01 07:22:18;;;;;;;12.82;6.03;;;;;;;21.00;61.16;100511.16;5069110;28;20039;-30
2022/10/01 07:24:44;;;;;;;10.02;6.20;;;;;;;21.19;60.41;100485.03;5068785;28;20029;-31
2022/10/01 07:27:10;;;;;;;9.10;5.97;;;;;;;21.44;59.47;100502.28;5068566;28;20082;-27
2022/10/01 07:29:36;;;;;;;9.63;6.63;;;;;;;21.47;59.82;100509.84;5068498;28;20024;-29
2022/10/01 07:32:07;;;;;;;9.85;6.30;;;;;;;21.43;59.77;100509.63;5068284;28;20131;-27
2022/10/01 07:34:34;;;;;;;8.55;5.90;;;;;;;21.78;59.20;100501.50;5068392;28;20025;-30
2022/10/01 07:37:00;;;;;;;10.50;6.70;;;;;;;22.02;59.70;100536.91;5068433;28;20396;-28
2022/10/01 07:39:25;;;;;;;10.05;6.35;;;;;;;22.07;57.79;100540.38;5068291;28;20024;-27
2022/10/01 07:41:51;;;;;;;9.82;6.60;;;;;;;22.20;58.57;100543.53;5068154;28;20036;-28
2022/10/01 07:44:17;;;;;;;10.85;5.90;;;;;;;22.25;58.28;100551.66;5050350;28;20133;-27
2022/10/01 07:46:43;;;;;;;11.10;5.60;;;;;;;22.56;57.73;100545.97;5067871;28;20029;-31
2022/10/01 07:49:09;;;;;;;9.88;5.53;;;;;;;22.51;55.91;100522.34;5068366;28;20147;-35
2022/10/01 07:51:35;;;;;;;7.97;5.68;;;;;;;22.86;54.21;100540.19;5068142;28;20031;-29
2022/10/01 07:54:02;;;;;;;10.05;6.20;;;;;;;22.84;53.69;100536.97;5068309;28;20040;-28
2022/10/01 07:56:27;;;;;;;8.23;4.97;;;;;;;23.01;52.35;100531.06;5067775;28;20036;-28
2022/10/01 07:58:54;;;;;;;8.65;5.75;;;;;;;22.83;53.56;100535.31;5067788;28;20143;-29
2022/10/01 08:01:19;;;;;;;9.68;5.78;;;;;;;22.90;54.94;100534.16;5067699;28;20036;-29
2022/10/01 08:03:48;;;;;;;9.95;5.85;;;;;;;23.40;53.52;100537.38;5068095;28;20036;-28
2022/10/01 08:06:13;;;;;;;7.05;5.45;;;;;;;23.39;51.94;100536.56;5046512;28;20061;-30
2022/10/01 08:08:39;;;;;;;8.82;5.85;;;;;;;23.45;51.58;100527.22;5048219;28;20035;-27
2022/10/01 08:11:07;;;;;;;9.30;6.00;;;;;;;23.43;51.37;100520.47;5047787;28;20033;-30
2022/10/01 08:13:33;;;;;;;;;;;;;;;23.52;52.13;100507.81;5048174;28;20505;-28
2022/10/01 08:16:02;;;;;;;9.13;5.72;;;;;;;23.83;51.28;100494.56;5047140;28;20396;-27
2022/10/01 08:18:27;;;;;;;9.25;6.25;;;;;;;24.04;51.27;100486.84;5046181;28;20102;-29
2022/10/01 08:20:53;;;;;;;11.77;6.03;;;;;;;24.14;51.45;100495.97;5048065;28;20412;-27
2022/10/01 08:23:20;;;;;;;8.05;5.47;;;;;;;24.30;51.66;100500.03;5045801;28;20036;-28
2022/10/01 08:25:46;;;;;;;12.18;8.02;;;;;;;24.65;49.80;100500.50;5047429;28;20035;-32
2022/10/01 08:28:13;;;;;;;11.60;6.20;;;;;;;24.82;49.08;100495.22;5045960;28;20659;-28
2022/10/01 08:30:40;;;;;;;16.48;6.55;;;;;;;24.91;50.12;100494.50;5047586;28;20477;-29
2022/10/01 08:33:08;;;;;;;9.68;6.03;;;;;;;24.96;49.44;100519.78;5047518;28;20029;-29
2022/10/01 08:35:36;;;;;;;8.57;5.65;;;;;;;25.05;48.29;100522.63;5047279;28;20033;-30
2022/10/01 08:38:04;;;;;;;11.20;5.82;;;;;;;25.60;47.84;100503.41;5047041;28;20033;-27
2022/10/01 08:40:35;;;;;;;13.35;6.00;;;;;;;25.81;47.60;100511.13;5045804;28;20476;-28
2022/10/01 08:43:06;;;;;;;7.60;5.20;;;;;;;26.07;46.84;100519.50;5047080;28;20039;-28
2022/10/01 08:45:34;;;;;;;7.15;5.53;;;;;;;26.06;46.41;100515.16;5047212;28;20452;-28
2022/10/01 08:48:04;;;;;;;8.63;4.80;;;;;;;26.35;45.06;100495.53;5047108;28;20087;-32
2022/10/01 08:51:17;;;;;;;9.50;5.97;;;;;;;26.63;45.87;100496.16;5047212;28;20036;-29
2022/10/01 08:53:52;;;;;;;9.55;5.38;;;;;;;26.61;45.56;100475.72;5004775;28;20030;-29
2022/10/01 08:56:34;;;;;;;14.10;5.55;;;;;;;26.68;44.86;100476.06;5040695;28;20044;-28
2022/10/01 08:59:04;;;;;;;9.13;5.38;;;;;;;26.35;46.04;100451.78;5047018;28;20037;-30
2022/10/01 09:01:30;;;;;;;7.90;5.05;;;;;;;26.88;45.63;100452.78;5046804;28;20152;-28
2022/10/01 09:03:58;;;;;;;8.35;5.65;;;;;;;26.44;45.91;100430.75;5046875;28;20119;-29
2022/10/01 09:06:26;;;;;;;10.63;5.07;;;;;;;26.84;44.43;100430.72;5052520;28;20059;-30
2022/10/01 09:09:09;;;;;;;9.73;5.28;;;;;;;26.68;44.48;100437.75;5066793;28;20025;-30
2022/10/01 09:12:06;;;;;;;7.03;5.00;;;;;;;26.96;44.07;100437.50;5066131;28;20043;-27
2022/10/01 09:14:37;;;;;;;9.13;5.07;;;;;;;27.14;44.19;100443.81;5048790;28;20492;-28
2022/10/01 09:17:05;;;;;;;8.27;5.20;;;;;;;26.76;43.98;100441.66;5066682;28;20118;-27
2022/10/01 09:20:08;;;;;;;8.80;4.72;;;;;;;26.75;43.99;100470.94;5066628;28;20105;-29
2022/10/01 09:22:49;;;;;;;7.60;4.70;;;;;;;26.74;45.33;100458.38;5066520;28;20039;-28
2022/10/01 09:25:24;;;;;;;9.20;4.43;;;;;;;27.15;43.97;100473.56;5066585;28;20030;-28
2022/10/01 09:27:55;;;;;;;9.05;4.47;;;;;;;27.41;43.73;100472.81;5066468;28;20036;-28
2022/10/01 09:30:24;;;;;;;7.30;4.50;;;;;;;27.86;42.43;100447.78;5066927;28;20028;-28
2022/10/01 09:33:18;;;;;;;11.05;4.78;;;;;;;27.80;41.39;100438.13;5066616;28;20040;-30
2022/10/01 09:36:02;;;;;;;8.00;4.40;;;;;;;27.27;42.52;100436.59;5066636;28;20480;-28
2022/10/01 09:38:47;;;;;;;7.50;4.40;;;;;;;27.07;42.44;100433.31;5066635;28;20107;-29
2022/10/01 09:41:13;;;;;;;8.73;4.90;;;;;;;27.28;42.63;100451.88;5066210;28;20035;-28
2022/10/01 09:43:42;;;;;;;7.13;4.13;;;;;;;27.19;41.57;100469.06;5048551;28;20035;-28
2022/10/01 09:46:13;;;;;;;7.55;4.65;;;;;;;27.38;41.53;100481.66;5066404;28;20032;-28
2022/10/01 09:48:51;;;;;;;12.00;5.70;;;;;;;27.44;40.79;100505.03;5066579;28;20052;-29
2022/10/01 09:51:23;;;;;;;8.45;4.00;;;;;;;27.48;41.43;100492.31;5048282;28;20032;-30
2022/10/01 09:54:11;;;;;;;7.15;4.00;;;;;;;27.32;40.00;100461.06;5066280;28;20098;-28
2022/10/01 09:56:46;;;;;;;7.13;4.10;;;;;;;27.53;40.26;100434.63;5066657;28;20127;-29
2022/10/01 09:59:41;;;;;;;7.10;4.20;;;;;;;27.78;40.06;100429.44;5066504;28;20261;-28
2022/10/01 10:02:21;;;;;;;6.30;4.00;;;;;;;27.44;39.96;100466.69;5066071;28;20028;-26
2022/10/01 10:05:00;;;;;;;6.93;4.05;;;;;;;27.22;40.41;100471.19;5066346;28;20051;-28
2022/10/01 10:07:27;;;;;;;6.65;4.00;;;;;;;27.13;40.88;100451.19;5065963;28;20059;-31
2022/10/01 10:09:53;;;;;;;6.47;4.03;;;;;;;27.37;41.05;100447.22;5066049;28;20039;-30
2022/10/01 10:12:27;;;;;;;6.93;4.00;;;;;;;27.28;41.95;100443.66;5066261;28;20399;-29
2022/10/01 10:14:55;;;;;;;7.30;4.70;;;;;;;27.13;42.10;100447.66;5066078;28;20064;-29
2022/10/01 10:17:21;;;;;;;10.13;4.78;;;;;;;27.31;41.81;100459.47;5066157;28;20166;-33
2022/10/01 10:19:51;;;;;;;11.63;5.40;;;;;;;27.54;43.57;100458.16;5065912;28;20119;-28
2022/10/01 10:22:25;;;;;;;9.00;6.60;;;;;;;27.73;41.25;100448.81;5067829;28;20033;-30
2022/10/01 10:24:52;;;;;;;7.90;4.40;;;;;;;27.75;40.27;100441.06;5069624;28;20032;-28
2022/10/01 10:27:29;;;;;;;7.45;4.20;;;;;;;27.63;40.50;100428.81;5069730;28;20040;-31
2022/10/01 10:30:25;;;;;;;6.78;4.07;;;;;;;27.54;39.93;100441.72;5069452;28;20492;-30
2022/10/01 10:32:53;;;;;;;5.78;4.18;;;;;;;27.39;39.91;100439.47;5038912;28;20462;-28
2022/10/01 10:35:28;;;;;;;7.47;4.53;;;;;;;27.14;40.61;100461.03;5051522;28;20025;-30
2022/10/01 10:37:58;;;;;;;9.25;4.15;;;;;;;26.82;42.15;100445.84;5069172;28;20565;-31
2022/10/01 10:40:40;;;;;;;5.55;3.80;;;;;;;26.86;41.38;100450.34;5069698;28;20052;-28
2022/10/01 10:43:21;;;;;;;10.60;5.38;;;;;;;27.03;41.66;100459.72;5069430;28;20029;-28
2022/10/01 10:45:53;;;;;;;6.75;5.00;;;;;;;26.93;41.06;100454.53;5069326;28;20025;-30
2022/10/01 10:48:19;;;;;;;10.30;5.50;;;;;;;27.04;42.17;100483.25;5069514;28;20098;-28
2022/10/01 10:50:45;;;;;;;8.80;5.93;;;;;;;26.97;42.81;100458.25;5069454;28;20033;-27
2022/10/01 10:53:26;;;;;;;8.13;5.32;;;;;;;27.00;44.16;100468.59;5051017;28;20473;-28
2022/10/01 10:55:59;;;;;;;8.68;4.70;;;;;;;26.88;42.92;100479.34;5069066;28;20036;-28
2022/10/01 10:58:32;;;;;;;10.80;4.63;;;;;;;26.80;43.95;100489.13;5068953;28;20021;-28
2022/10/01 11:01:01;;;;;;;10.85;5.47;;;;;;;26.71;43.56;100480.91;5069667;28;20036;-27
2022/10/01 11:03:29;;;;;;;7.97;4.70;;;;;;;26.57;43.77;100504.81;5068956;28;20032;-28
2022/10/01 11:06:10;;;;;;;6.05;4.07;;;;;;;26.11;42.89;100492.34;5050459;28;20611;-28
2022/10/01 11:08:37;;;;;;;11.35;5.07;;;;;;;26.04;43.69;100484.59;5068791;28;20578;-30
2022/10/01 11:11:05;;;;;;;6.47;4.27;;;;;;;26.23;43.58;100493.38;5069054;28;20097;-29
2022/10/01 11:14:07;;;;;;;8.18;4.90;;;;;;;26.31;43.04;100489.09;5068845;28;20316;-30
2022/10/01 11:17:11;;;;;;;9.05;5.40;;;;;;;26.11;43.20;100484.94;5050419;28;20041;-30
2022/10/01 11:19:46;;;;;;;7.97;4.97;;;;;;;25.85;44.33;100492.97;5068866;28;20450;-29
2022/10/01 11:22:45;;;;;;;9.60;4.90;;;;;;;25.61;44.33;100477.69;5068732;28;20017;-28
2022/10/01 11:25:18;;;;;;;6.65;4.70;;;;;;;25.61;45.56;100491.34;5068488;28;20488;-27
2022/10/01 11:27:57;;;;;;;6.35;4.22;;;;;;;25.51;45.55;100505.25;5050330;28;20079;-29
2022/10/01 11:30:33;;;;;;;7.63;4.45;;;;;;;25.57;45.95;100514.94;5068809;28;20040;-30
2022/10/01 11:33:20;;;;;;;9.82;5.07;;;;;;;25.54;45.83;100536.59;5068488;28;20031;-28
2022/10/01 11:36:23;;;;;;;8.73;3.90;;;;;;;25.60;47.10;100497.94;5068374;28;20602;-28